Time;durP1;ratioP1;P1;durP2;ratioP2;P2;SDS_P1;SDS_P2;PMS_P1;PMS_P2;Temp;Humidity;BMP_temperature;BMP_pressure;BME280_temperature;BME280_humidity;BME280_pressure;Samples;Min_cycle;Max_cycle;Signal;HPM_P1;HPM_P2
2023/07/19 00:01:47;;;;;;;3.53;1.93;;;16.30;1.00;;;;;;5040448;28;20186;-79
2023/07/19 00:04:12;;;;;;;4.40;2.07;;;16.40;1.00;;;;;;5040878;28;20190;-80
2023/07/19 00:06:38;;;;;;;2.40;2.07;;;16.40;99.90;;;;;;5040524;28;20205;-78
2023/07/19 00:09:04;;;;;;;2.30;1.93;;;16.30;1.00;;;;;;5040999;28;20197;-79
2023/07/19 00:11:29;;;;;;;2.40;2.10;;;16.20;1.00;;;;;;5040519;28;20174;-79
2023/07/19 00:13:55;;;;;;;2.73;2.10;;;16.10;99.90;;;;;;5040627;28;20236;-80
2023/07/19 00:16:20;;;;;;;3.33;2.03;;;15.90;99.90;;;;;;5040981;28;20203;-79
2023/07/19 00:18:46;;;;;;;2.60;2.00;;;15.80;99.90;;;;;;5041057;28;20213;-79
2023/07/19 00:21:11;;;;;;;2.50;2.10;;;15.80;99.90;;;;;;5039763;28;20185;-79
2023/07/19 00:23:38;;;;;;;2.50;1.90;;;16.10;99.90;;;;;;5041233;28;20715;-79
2023/07/19 00:26:03;;;;;;;2.93;2.20;;;16.30;1.00;;;;;;5041391;28;20186;-79
2023/07/19 00:28:29;;;;;;;2.37;2.00;;;16.40;1.00;;;;;;5040058;28;20187;-78
2023/07/19 00:31:03;;;;;;;3.27;2.07;;;16.30;1.00;;;;;;5039516;28;20201;-79
2023/07/19 00:33:29;;;;;;;3.13;2.10;;;16.30;1.00;;;;;;5039598;28;20203;-78
2023/07/19 00:35:55;;;;;;;2.37;1.93;;;16.10;1.00;;;;;;5040032;28;20586;-79
2023/07/19 00:38:21;;;;;;;2.23;1.90;;;16.00;1.00;;;;;;5040583;28;20695;-78
2023/07/19 00:40:48;;;;;;;3.77;2.00;;;15.80;99.90;;;;;;5039423;28;20182;-78
2023/07/19 00:43:13;;;;;;;3.23;1.93;;;16.00;99.90;;;;;;5039714;28;20194;-79
2023/07/19 00:45:53;;;;;;;2.30;2.10;;;16.10;1.00;;;;;;5038914;28;20172;-79
2023/07/19 00:48:19;;;;;;;2.20;2.00;;;16.00;1.00;;;;;;5039809;28;20171;-79
2023/07/19 00:50:47;;;;;;;2.87;2.10;;;16.00;1.00;;;;;;5039073;28;20645;-79
2023/07/19 00:53:13;;;;;;;4.10;2.20;;;16.00;1.00;;;;;;5039507;28;20190;-79
2023/07/19 00:55:39;;;;;;;2.50;2.00;;;15.80;1.00;;;;;;5039278;28;20185;-80
2023/07/19 00:58:05;;;;;;;3.63;2.20;;;15.60;99.90;;;;;;5039992;28;20202;-79
2023/07/19 01:00:31;;;;;;;2.90;2.00;;;15.20;99.90;;;;;;5038790;28;20173;-78
2023/07/19 01:02:58;;;;;;;3.10;2.10;;;15.00;1.00;;;;;;5039358;28;20209;-80
2023/07/19 01:05:24;;;;;;;4.93;2.17;;;15.10;1.00;;;;;;5040030;28;20669;-78
2023/07/19 01:07:50;;;;;;;3.47;2.10;;;15.30;99.90;;;;;;5039180;28;20225;-79
2023/07/19 01:10:16;;;;;;;2.47;2.03;;;15.40;99.90;;;;;;5037138;28;20223;-79
2023/07/19 01:12:42;;;;;;;2.70;2.20;;;15.40;1.00;;;;;;5034935;28;20198;-79
2023/07/19 01:15:09;;;;;;;3.30;2.20;;;15.30;99.90;;;;;;5036118;28;20171;-78
2023/07/19 01:17:38;;;;;;;3.23;2.20;;;15.10;99.90;;;;;;5039824;28;20673;-78
2023/07/19 01:20:06;;;;;;;4.40;2.20;;;14.90;1.00;;;;;;5039112;28;20179;-79
2023/07/19 01:22:32;;;;;;;2.47;1.90;;;14.90;1.00;;;;;;5039871;28;20224;-79
2023/07/19 01:24:59;;;;;;;2.60;2.13;;;14.90;1.00;;;;;;5040348;28;20641;-80
2023/07/19 01:27:25;;;;;;;3.80;2.10;;;14.90;1.00;;;;;;5038833;28;20217;-79
2023/07/19 01:29:50;;;;;;;2.87;2.10;;;14.90;1.00;;;;;;5026942;28;20563;-79
2023/07/19 01:32:17;;;;;;;3.13;2.20;;;14.90;1.00;;;;;;5019644;28;20214;-78
2023/07/19 01:34:43;;;;;;;2.93;2.10;;;15.00;1.00;;;;;;5032894;28;20193;-79
2023/07/19 01:37:09;;;;;;;2.53;2.20;;;15.00;4.70;;;;;;5039712;28;20178;-79
2023/07/19 01:39:34;;;;;;;2.67;2.20;;;14.90;99.90;;;;;;5033919;28;20189;-79
2023/07/19 01:42:00;;;;;;;3.13;2.00;;;14.80;99.90;;;;;;5025940;28;20221;-78
2023/07/19 01:44:27;;;;;;;2.37;1.90;;;14.70;1.00;;;;;;5039313;28;20174;-79
2023/07/19 01:46:52;;;;;;;2.57;2.07;;;14.70;1.00;;;;;;5039043;28;20182;-79
2023/07/19 01:49:18;;;;;;;2.07;1.87;;;14.80;99.90;;;;;;5038777;28;20166;-78
2023/07/19 01:51:43;;;;;;;3.50;2.03;;;14.70;1.00;;;;;;5039131;28;20265;-78
2023/07/19 01:54:09;;;;;;;4.13;2.30;;;14.70;1.00;;;;;;5039144;28;20171;-80
2023/07/19 01:56:34;;;;;;;3.30;2.17;;;14.80;1.00;;;;;;5041412;28;20213;-78
2023/07/19 01:59:00;;;;;;;4.70;2.27;;;14.80;94.80;;;;;;5042724;28;20684;-79
2023/07/19 02:01:25;;;;;;;2.87;2.10;;;14.70;1.00;;;;;;5043096;28;20166;-79
2023/07/19 02:03:51;;;;;;;2.97;2.30;;;14.80;1.00;;;;;;5043766;28;20214;-78
2023/07/19 02:06:16;;;;;;;2.50;2.10;;;14.80;1.00;;;;;;5042648;28;20174;-79
2023/07/19 02:08:42;;;;;;;3.20;2.10;;;14.90;1.00;;;;;;5043435;28;20174;-80
2023/07/19 02:11:08;;;;;;;3.27;2.20;;;15.00;99.90;;;;;;5042978;28;20178;-79
2023/07/19 02:13:33;;;;;;;3.20;2.07;;;15.10;99.90;;;;;;5043311;28;20194;-79
2023/07/19 02:15:59;;;;;;;2.77;2.27;;;15.20;99.90;;;;;;5043278;28;20182;-79
2023/07/19 02:18:24;;;;;;;2.80;1.93;;;15.10;99.90;;;;;;5042607;28;20300;-79
2023/07/19 02:20:53;;;;;;;2.63;2.10;;;15.10;1.00;;;;;;5042183;28;20205;-79
2023/07/19 02:23:19;;;;;;;3.50;2.10;;;15.00;99.90;;;;;;5043018;28;20198;-78
2023/07/19 02:25:48;;;;;;;2.70;2.03;;;14.90;1.00;;;;;;5042932;28;20183;-79
2023/07/19 02:28:13;;;;;;;3.53;2.10;;;15.00;1.00;;;;;;5043001;28;20182;-79
2023/07/19 02:30:43;;;;;;;4.43;2.10;;;14.90;99.90;;;;;;5042589;28;20194;-79
2023/07/19 02:33:10;;;;;;;3.10;2.20;;;14.80;1.00;;;;;;5042359;28;20217;-78
2023/07/19 02:35:36;;;;;;;2.67;2.10;;;14.70;1.00;;;;;;5042985;28;20178;-79
2023/07/19 02:38:01;;;;;;;3.03;2.10;;;14.70;2.50;;;;;;5042661;28;20212;-79
2023/07/19 02:40:27;;;;;;;3.63;1.93;;;14.90;1.00;;;;;;5042512;28;20181;-79
2023/07/19 02:42:52;;;;;;;2.33;1.87;;;14.70;1.00;;;;;;5043259;28;20187;-78
2023/07/19 02:45:18;;;;;;;3.63;2.23;;;14.70;1.00;;;;;;5043988;28;20182;-78
2023/07/19 02:47:44;;;;;;;3.20;2.03;;;14.70;1.00;;;;;;5042532;28;20190;-79
2023/07/19 02:50:10;;;;;;;4.30;2.40;;;14.50;99.90;;;;;;5041970;28;20201;-80
2023/07/19 02:52:35;;;;;;;3.07;2.20;;;14.40;1.00;;;;;;5042323;28;20210;-78
2023/07/19 02:55:01;;;;;;;2.43;2.13;;;14.50;99.90;;;;;;5043206;28;20179;-79
2023/07/19 02:57:26;;;;;;;4.40;2.43;;;14.40;1.00;;;;;;5042260;28;20198;-79
2023/07/19 02:59:52;;;;;;;2.90;2.13;;;14.30;99.90;;;;;;5041807;28;20551;-79
2023/07/19 03:02:17;;;;;;;3.57;2.43;;;14.20;1.00;;;;;;5042666;28;20244;-79
2023/07/19 03:04:43;;;;;;;3.00;2.10;;;14.30;1.00;;;;;;5042692;28;20267;-78
2023/07/19 03:07:09;;;;;;;2.33;2.13;;;14.50;99.90;;;;;;5041896;28;20167;-79
2023/07/19 03:09:34;;;;;;;3.23;2.30;;;14.60;1.00;;;;;;5042270;28;20190;-79
2023/07/19 03:12:00;;;;;;;4.17;2.40;;;14.60;99.90;;;;;;5041089;28;20190;-79
2023/07/19 03:14:26;;;;;;;4.30;2.40;;;14.60;99.90;;;;;;5035193;28;20179;-78
2023/07/19 03:16:51;;;;;;;4.30;2.30;;;14.50;1.00;;;;;;5002389;28;20179;-78
2023/07/19 03:19:17;;;;;;;3.37;2.40;;;14.50;1.00;;;;;;5003637;28;20681;-79
2023/07/19 03:21:43;;;;;;;3.17;2.60;;;14.50;1.00;;;;;;5001766;28;20175;-78
2023/07/19 03:24:09;;;;;;;4.97;2.73;;;14.30;99.90;;;;;;5002269;28;20255;-79
2023/07/19 03:26:34;;;;;;;2.90;2.60;;;14.40;99.90;;;;;;5002492;28;20203;-79
2023/07/19 03:29:00;;;;;;;5.07;2.63;;;14.50;50.10;;;;;;5003625;28;20172;-79
2023/07/19 03:31:25;;;;;;;3.37;2.30;;;14.50;1.00;;;;;;5000822;28;20180;-79
2023/07/19 03:33:51;;;;;;;3.80;2.43;;;14.50;1.00;;;;;;5001236;28;20559;-79
2023/07/19 03:36:17;;;;;;;3.03;2.30;;;14.50;99.90;;;;;;5002701;28;20182;-79
2023/07/19 03:38:42;;;;;;;2.50;2.20;;;14.50;1.00;;;;;;5002236;28;20202;-78
2023/07/19 03:41:08;;;;;;;3.20;2.30;;;14.60;1.00;;;;;;5001906;28;20175;-79
2023/07/19 03:43:35;;;;;;;2.70;2.20;;;14.70;1.00;;;;;;5001770;28;20199;-78
2023/07/19 03:46:00;;;;;;;3.83;2.40;;;14.70;99.90;;;;;;5002396;28;20202;-78
2023/07/19 03:48:26;;;;;;;2.57;2.30;;;14.60;99.90;;;;;;5001981;28;20175;-79
2023/07/19 03:50:57;;;;;;;3.10;2.43;;;14.50;1.00;;;;;;5000713;28;20179;-79
2023/07/19 03:53:22;;;;;;;3.60;2.57;;;14.50;99.90;;;;;;5002239;28;20199;-79
2023/07/19 03:55:59;;;;;;;3.07;2.47;;;14.50;99.90;;;;;;5002008;28;20175;-79
2023/07/19 03:58:26;;;;;;;3.43;2.70;;;14.60;99.90;;;;;;5001789;28;20187;-79
2023/07/19 04:00:53;;;;;;;3.50;2.40;;;14.70;1.00;;;;;;5002016;28;20246;-79
2023/07/19 04:03:19;;;;;;;3.10;2.37;;;14.80;99.90;;;;;;5040289;23;20225;-78
2023/07/19 04:05:45;;;;;;;2.90;2.60;;;14.80;1.00;;;;;;5029571;28;20170;-79
2023/07/19 04:08:15;;;;;;;3.10;2.50;;;14.60;99.90;;;;;;5036281;28;20228;-79
2023/07/19 04:10:41;;;;;;;2.83;2.50;;;14.70;99.90;;;;;;5035147;28;20223;-78
2023/07/19 04:13:08;;;;;;;3.80;2.53;;;14.80;90.90;;;;;;5053864;28;20217;-78
2023/07/19 04:15:33;;;;;;;3.50;2.30;;;14.70;99.90;;;;;;5035758;28;20170;-79
2023/07/19 04:17:59;;;;;;;3.53;2.47;;;14.60;99.90;;;;;;5051751;28;20372;-79
2023/07/19 04:20:27;;;;;;;3.90;2.77;;;14.60;99.90;;;;;;5026683;28;20166;-78
2023/07/19 04:22:53;;;;;;;4.50;2.63;;;14.50;1.10;;;;;;5035495;28;20672;-78
2023/07/19 04:25:19;;;;;;;4.53;2.60;;;14.40;1.00;;;;;;5054105;28;20172;-78
2023/07/19 04:27:44;;;;;;;3.97;2.40;;;14.50;99.90;;;;;;5035662;28;20180;-78
2023/07/19 04:30:10;;;;;;;3.70;2.73;;;14.50;1.00;;;;;;5052645;28;20204;-78
2023/07/19 04:32:36;;;;;;;3.33;2.50;;;14.60;1.00;;;;;;5041232;28;20190;-78
2023/07/19 04:35:02;;;;;;;3.73;2.60;;;14.70;1.00;;;;;;5033442;28;20227;-78
2023/07/19 04:37:27;;;;;;;3.30;2.50;;;14.80;1.00;;;;;;5019971;28;20576;-80
2023/07/19 04:39:53;;;;;;;4.97;2.60;;;14.90;1.00;;;;;;5020934;28;20174;-78
2023/07/19 04:42:21;;;;;;;2.73;2.37;;;14.80;1.00;;;;;;5033155;28;20226;-78
2023/07/19 04:44:47;;;;;;;3.13;2.57;;;14.80;1.00;;;;;;5015624;28;20176;-79
2023/07/19 04:47:13;;;;;;;2.83;2.43;;;14.90;99.90;;;;;;5015599;28;20265;-78
2023/07/19 04:49:38;;;;;;;3.17;2.60;;;15.00;1.00;;;;;;5015304;28;20182;-78
2023/07/19 04:52:04;;;;;;;3.47;2.60;;;15.10;1.00;;;;;;5042330;28;20190;-79
2023/07/19 04:54:30;;;;;;;3.97;2.63;;;15.20;1.00;;;;;;5043737;28;20681;-79
2023/07/19 04:56:56;;;;;;;4.03;3.07;;;15.30;1.00;;;;;;5029325;28;20256;-78
2023/07/19 04:59:21;;;;;;;4.60;2.60;;;15.30;1.00;;;;;;5052236;28;20209;-78
2023/07/19 05:01:47;;;;;;;3.43;2.60;;;15.20;99.90;;;;;;5033997;28;20545;-78
2023/07/19 05:04:12;;;;;;;3.70;2.60;;;15.20;1.00;;;;;;5034509;28;20209;-79
2023/07/19 05:06:38;;;;;;;4.00;2.90;;;15.20;1.00;;;;;;5034733;28;20169;-78
2023/07/19 05:09:05;;;;;;;4.87;2.83;;;15.20;1.00;;;;;;5034527;28;20180;-78
2023/07/19 05:11:31;;;;;;;5.13;2.70;;;15.30;1.00;;;;;;5051972;28;20192;-79
2023/07/19 05:13:57;;;;;;;4.10;2.93;;;15.40;1.00;;;;;;5051958;28;20193;-78
2023/07/19 05:16:23;;;;;;;4.73;2.73;;;15.40;1.00;;;;;;5051964;28;20219;-85
2023/07/19 05:18:48;;;;;;;3.27;2.97;;;15.50;99.90;;;;;;5034199;28;20209;-79
2023/07/19 05:21:14;;;;;;;4.17;3.10;;;15.60;96.20;;;;;;5051623;28;20170;-77
2023/07/19 05:23:41;;;;;;;5.47;3.00;;;15.70;1.00;;;;;;5051934;28;20718;-78
2023/07/19 05:26:06;;;;;;;4.77;2.77;;;15.80;1.00;;;;;;5034102;28;20570;-78
2023/07/19 05:28:32;;;;;;;3.50;2.90;;;16.00;99.90;;;;;;5034121;28;20668;-78
2023/07/19 05:31:04;;;;;;;4.43;3.00;;;16.00;1.00;;;;;;5032926;28;20235;-78
2023/07/19 05:33:32;;;;;;;4.83;3.63;;;16.00;1.00;;;;;;5033764;28;20206;-79
2023/07/19 05:35:58;;;;;;;4.23;3.10;;;16.00;1.00;;;;;;5025654;28;20212;-78
2023/07/19 05:38:24;;;;;;;5.70;3.40;;;16.00;1.00;;;;;;5033660;28;20197;-78
2023/07/19 05:40:50;;;;;;;3.63;2.80;;;16.10;1.00;;;;;;5033391;28;20173;-78
2023/07/19 05:43:15;;;;;;;4.13;3.50;;;16.30;1.00;;;;;;5033923;28;20197;-78
2023/07/19 05:45:41;;;;;;;3.37;2.80;;;16.30;99.90;;;;;;5051617;28;20226;-78
2023/07/19 05:48:07;;;;;;;4.23;3.00;;;16.40;99.90;;;;;;5052195;28;20219;-78
2023/07/19 05:50:32;;;;;;;4.30;2.93;;;16.50;99.90;;;;;;5051602;28;20181;-78
2023/07/19 05:52:58;;;;;;;3.00;2.60;;;16.50;99.90;;;;;;5033818;28;20189;-78
2023/07/19 05:55:24;;;;;;;2.83;2.53;;;16.50;1.00;;;;;;5034150;28;20173;-78
2023/07/19 05:57:50;;;;;;;2.90;2.57;;;16.60;1.00;;;;;;5051510;28;20200;-77
2023/07/19 06:00:24;;;;;;;3.40;2.57;;;16.70;99.90;;;;;;5033222;28;20193;-78
2023/07/19 06:02:53;;;;;;;2.93;2.33;;;16.80;1.00;;;;;;5051531;28;20224;-79
2023/07/19 06:05:19;;;;;;;3.57;2.50;;;16.90;99.90;;;;;;5051552;28;20173;-79
2023/07/19 06:07:47;;;;;;;4.07;2.60;;;17.30;1.00;;;;;;5051894;28;20213;-78
2023/07/19 06:10:13;;;;;;;3.13;2.40;;;17.60;1.00;;;;;;5051250;28;20193;-78
2023/07/19 06:12:42;;;;;;;3.97;2.50;;;17.80;99.90;;;;;;5033985;28;20704;-80
2023/07/19 06:15:08;;;;;;;6.23;2.90;;;18.10;1.00;;;;;;5034611;28;20178;-81
2023/07/19 06:17:33;;;;;;;5.17;3.00;;;18.30;99.90;;;;;;5052515;28;20217;-80
2023/07/19 06:19:59;;;;;;;3.57;2.57;;;18.40;99.90;;;;;;5051970;28;20231;-79
2023/07/19 06:22:25;;;;;;;3.13;2.83;;;18.50;99.90;;;;;;5052745;28;20216;-79
2023/07/19 06:24:51;;;;;;;4.07;2.90;;;18.50;1.00;;;;;;5052772;28;20174;-79
2023/07/19 06:27:16;;;;;;;4.00;2.60;;;18.40;8.30;;;;;;5051804;28;20170;-78
2023/07/19 06:29:45;;;;;;;3.70;2.70;;;18.60;99.90;;;;;;5032897;28;20170;-77
2023/07/19 06:32:11;;;;;;;3.87;2.47;;;19.40;1.00;;;;;;5033542;28;20256;-78
2023/07/19 06:34:36;;;;;;;3.40;2.60;;;20.00;1.00;;;;;;5029839;28;20269;-77
2023/07/19 06:37:02;;;;;;;4.90;2.27;;;20.00;1.00;;;;;;5020758;28;20208;-78
2023/07/19 06:39:29;;;;;;;3.23;2.57;;;20.10;1.00;;;;;;5051170;28;20202;-78
2023/07/19 06:41:55;;;;;;;4.00;2.58;;;20.10;1.00;;;;;;5050625;28;20165;-76
2023/07/19 06:44:21;;;;;;;4.50;2.60;;;20.20;99.90;;;;;;5053695;28;20200;-79
2023/07/19 06:46:46;;;;;;;4.20;2.90;;;20.70;44.70;;;;;;5037295;28;20166;-78
2023/07/19 06:49:12;;;;;;;3.20;2.40;;;21.00;1.00;;;;;;5036946;28;20169;-78
2023/07/19 06:51:38;;;;;;;3.38;2.60;;;21.10;99.90;;;;;;5054397;28;20201;-78
2023/07/19 06:54:03;;;;;;;2.97;2.28;;;21.40;69.60;;;;;;5053884;28;20198;-78
2023/07/19 06:56:29;;;;;;;3.67;2.70;;;21.40;1.00;;;;;;5035238;28;20174;-80
2023/07/19 06:58:54;;;;;;;4.20;2.20;;;21.50;1.00;;;;;;5016945;28;20361;-78
2023/07/19 07:01:20;;;;;;;4.65;2.63;;;21.40;1.00;;;;;;5025290;28;20303;-78
2023/07/19 07:03:45;;;;;;;3.10;2.38;;;21.50;1.00;;;;;;5028226;28;20213;-78
2023/07/19 07:06:11;;;;;;;6.38;2.72;;;21.50;1.00;;;;;;5054437;28;20177;-78
2023/07/19 07:08:36;;;;;;;3.63;2.60;;;21.40;99.90;;;;;;5036612;28;20557;-78
2023/07/19 07:11:04;;;;;;;3.67;2.47;;;21.30;99.90;;;;;;5035911;28;20169;-78
2023/07/19 07:13:30;;;;;;;3.65;2.50;;;21.10;24.50;;;;;;5036293;28;20204;-78
2023/07/19 07:15:57;;;;;;;3.95;2.50;;;21.00;99.90;;;;;;5054334;28;20178;-78
2023/07/19 07:18:23;;;;;;;3.58;2.35;;;20.90;1.00;;;;;;5036377;28;20201;-78
2023/07/19 07:20:51;;;;;;;2.97;2.38;;;20.90;1.00;;;;;;5035827;28;20168;-78
2023/07/19 07:23:17;;;;;;;3.67;2.55;;;21.00;1.00;;;;;;5036446;28;20634;-77
2023/07/19 07:25:43;;;;;;;3.15;2.30;;;21.10;1.00;;;;;;5054017;28;20253;-78
2023/07/19 07:28:08;;;;;;;4.35;2.30;;;21.20;1.00;;;;;;5054032;28;20679;-78
2023/07/19 07:30:36;;;;;;;3.88;2.30;;;21.20;1.00;;;;;;5035505;28;20180;-77
2023/07/19 07:33:01;;;;;;;4.10;2.63;;;21.30;1.00;;;;;;5028610;28;20205;-78
2023/07/19 07:35:28;;;;;;;4.68;2.47;;;21.40;1.00;;;;;;5053007;28;20177;-77
2023/07/19 07:37:53;;;;;;;2.35;1.90;;;21.40;1.00;;;;;;5035582;28;20255;-78
2023/07/19 07:40:19;;;;;;;3.05;1.95;;;21.50;1.00;;;;;;5033732;28;20169;-78
2023/07/19 07:42:45;;;;;;;4.45;2.53;;;21.70;1.00;;;;;;5028659;28;20280;-79
2023/07/19 07:45:10;;;;;;;3.70;2.10;;;21.80;1.00;;;;;;5035948;28;20173;-78
2023/07/19 07:47:36;;;;;;;3.58;2.28;;;22.00;1.00;;;;;;5035746;28;20178;-78
2023/07/19 07:50:03;;;;;;;3.17;2.30;;;22.00;1.00;;;;;;5053076;28;20201;-78
2023/07/19 07:52:30;;;;;;;4.05;2.20;;;22.10;1.00;;;;;;5035551;28;20194;-78
2023/07/19 07:54:55;;;;;;;2.72;2.20;;;22.20;1.00;;;;;;5035131;28;20563;-78
2023/07/19 07:57:21;;;;;;;3.58;2.47;;;22.40;99.90;;;;;;5053383;28;20174;-78
2023/07/19 07:59:47;;;;;;;3.53;2.17;;;22.50;99.90;;;;;;5053065;28;20173;-77
2023/07/19 08:02:12;;;;;;;4.47;2.40;;;22.60;99.90;;;;;;5035298;28;20173;-78
2023/07/19 08:04:38;;;;;;;4.07;2.35;;;22.70;99.90;;;;;;5053186;28;20249;-78
2023/07/19 08:07:04;;;;;;;2.92;2.05;;;22.90;99.90;;;;;;5053173;28;20260;-79
2023/07/19 08:09:29;;;;;;;4.45;2.40;;;22.90;99.90;;;;;;5035200;28;20188;-76
2023/07/19 08:11:55;;;;;;;3.65;2.03;;;23.10;99.90;;;;;;5034876;28;20178;-78
2023/07/19 08:14:22;;;;;;;2.83;2.25;;;23.20;99.90;;;;;;5035467;28;20229;-78
2023/07/19 08:16:49;;;;;;;3.72;2.08;;;23.30;99.90;;;;;;5035249;28;20169;-78
2023/07/19 08:19:15;;;;;;;2.70;2.22;;;23.40;99.90;;;;;;5035067;28;20703;-78
2023/07/19 08:21:40;;;;;;;3.95;2.35;;;23.60;99.90;;;;;;5034577;28;20178;-78
2023/07/19 08:24:06;;;;;;;5.07;2.33;;;23.70;99.90;;;;;;5034983;28;20204;-78
2023/07/19 08:26:32;;;;;;;4.68;2.60;;;23.70;99.90;;;;;;5034963;28;20656;-78
2023/07/19 08:28:57;;;;;;;3.67;2.67;;;23.90;99.90;;;;;;5053094;28;20174;-77
2023/07/19 08:31:23;;;;;;;3.25;2.33;;;24.10;99.90;;;;;;5052286;28;20174;-78
2023/07/19 08:33:49;;;;;;;3.30;2.30;;;24.30;99.90;;;;;;5035134;28;20267;-78
2023/07/19 08:36:14;;;;;;;3.88;1.90;;;24.30;99.90;;;;;;5034791;28;20201;-76
2023/07/19 08:38:40;;;;;;;3.08;2.20;;;24.40;99.90;;;;;;5052402;28;20189;-78
2023/07/19 08:41:06;;;;;;;2.33;1.80;;;24.50;99.90;;;;;;5044186;28;20184;-79
2023/07/19 08:43:36;;;;;;;5.03;2.28;;;24.70;99.90;;;;;;5034861;28;20194;-78
2023/07/19 08:46:02;;;;;;;3.22;2.30;;;24.90;99.90;;;;;;5034853;28;20170;-79
2023/07/19 08:48:31;;;;;;;3.10;1.88;;;25.00;99.90;;;;;;5053056;28;20544;-80
2023/07/19 08:51:00;;;;;;;3.13;2.17;;;25.20;99.90;;;;;;5035229;28;20181;-79
2023/07/19 08:53:26;;;;;;;3.40;2.00;;;25.30;99.90;;;;;;5054556;28;20190;-81
2023/07/19 08:55:53;;;;;;;2.38;1.90;;;25.20;99.90;;;;;;5054182;28;20181;-80
2023/07/19 08:58:20;;;;;;;3.88;2.00;;;25.30;99.90;;;;;;5034475;28;20664;-80
2023/07/19 09:00:48;;;;;;;2.65;1.80;;;25.30;99.90;;;;;;5052389;28;20241;-79
2023/07/19 09:03:14;;;;;;;3.22;1.65;;;25.30;99.90;;;;;;5052070;28;20213;-80
2023/07/19 09:05:40;;;;;;;2.35;1.58;;;25.30;99.90;;;;;;5052028;28;20174;-80
2023/07/19 09:08:09;;;;;;;3.40;1.42;;;25.30;99.90;;;;;;5034964;28;20261;-80
2023/07/19 09:10:35;;;;;;;2.35;1.50;;;25.30;99.90;;;;;;5033938;28;20174;-80
2023/07/19 09:13:04;;;;;;;2.50;1.85;;;25.40;99.90;;;;;;5034437;28;20199;-78
2023/07/19 09:15:30;;;;;;;2.20;2.00;;;25.50;99.90;;;;;;5034939;28;20204;-80
2023/07/19 09:17:55;;;;;;;2.70;2.00;;;25.50;99.90;;;;;;5034526;28;20237;-80
2023/07/19 09:20:26;;;;;;;2.67;2.08;;;25.60;99.90;;;;;;5034078;28;20181;-80
2023/07/19 09:22:51;;;;;;;2.33;1.80;;;25.80;99.90;;;;;;5052358;28;20190;-79
2023/07/19 09:25:17;;;;;;;2.72;1.70;;;25.80;99.90;;;;;;5034944;28;20213;-80
2023/07/19 09:27:45;;;;;;;3.22;2.00;;;25.90;99.90;;;;;;5051977;28;20256;-80
2023/07/19 09:30:12;;;;;;;3.88;1.80;;;26.00;99.90;;;;;;5051921;28;20339;-78
2023/07/19 09:32:38;;;;;;;3.35;2.20;;;26.20;99.90;;;;;;5052060;28;20228;-80
2023/07/19 09:35:06;;;;;;;3.28;2.40;;;26.30;99.90;;;;;;5034550;28;20173;-77
2023/07/19 09:37:32;;;;;;;3.38;2.00;;;26.50;99.90;;;;;;5034051;28;20235;-78
2023/07/19 09:39:59;;;;;;;4.60;2.08;;;26.50;99.90;;;;;;5051600;28;20166;-77
2023/07/19 09:42:25;;;;;;;3.30;1.90;;;26.80;99.90;;;;;;5034306;28;20194;-78
2023/07/19 09:44:52;;;;;;;4.47;2.03;;;27.20;99.90;;;;;;5052010;28;20196;-78
2023/07/19 09:47:19;;;;;;;4.90;2.38;;;27.40;94.10;;;;;;5051743;28;20518;-78
2023/07/19 09:49:45;;;;;;;3.30;2.15;;;27.10;90.20;;;;;;5033352;28;20260;-77
2023/07/19 09:52:17;;;;;;;3.70;2.15;;;27.60;95.80;;;;;;5051326;28;20189;-78
2023/07/19 09:54:44;;;;;;;2.58;1.88;;;27.80;74.30;;;;;;5032687;28;20174;-77
2023/07/19 09:57:10;;;;;;;4.82;1.85;;;27.60;59.40;;;;;;5051445;28;20251;-78
2023/07/19 09:59:40;;;;;;;2.20;1.85;;;27.60;53.30;;;;;;5050912;28;20683;-74
2023/07/19 10:02:07;;;;;;;5.15;2.20;;;27.60;51.50;;;;;;5051098;28;20336;-78
2023/07/19 10:04:40;;;;;;;3.67;2.08;;;27.80;51.10;;;;;;5052783;28;20261;-78
2023/07/19 10:07:27;;;;;;;4.65;2.22;;;27.90;46.20;;;;;;5051802;28;20231;-77
2023/07/19 10:10:01;;;;;;;5.75;2.03;;;28.30;42.10;;;;;;5050916;28;20252;-79
2023/07/19 10:12:28;;;;;;;2.58;2.00;;;27.90;37.80;;;;;;5051339;28;20605;-77
2023/07/19 10:14:54;;;;;;;3.92;2.15;;;27.40;37.70;;;;;;5051833;28;20181;-78
2023/07/19 10:17:20;;;;;;;2.10;1.90;;;27.20;34.90;;;;;;5051601;28;20177;-80
2023/07/19 10:20:11;;;;;;;5.72;2.22;;;26.80;38.60;;;;;;5037065;28;20185;-78
2023/07/19 10:22:57;;;;;;;2.90;1.90;;;26.70;50.60;;;;;;5055075;28;20691;-78
2023/07/19 10:25:29;;;;;;;1.90;1.70;;;26.70;64.00;;;;;;5055588;28;20177;-78
2023/07/19 10:27:59;;;;;;;3.05;1.73;;;26.60;55.80;;;;;;5038031;28;20177;-79
2023/07/19 10:30:46;;;;;;;2.75;1.77;;;26.50;48.50;;;;;;5054952;28;20174;-79
2023/07/19 10:33:13;;;;;;;3.25;1.90;;;26.40;52.40;;;;;;5037054;28;20691;-80
2023/07/19 10:35:40;;;;;;;2.85;1.88;;;26.60;48.60;;;;;;5055317;28;20177;-79
2023/07/19 10:38:15;;;;;;;2.00;1.75;;;26.70;43.70;;;;;;5037485;28;20197;-80
2023/07/19 10:40:44;;;;;;;3.88;1.90;;;26.90;38.50;;;;;;5054687;28;20169;-78
2023/07/19 10:43:09;;;;;;;2.97;1.90;;;27.00;31.20;;;;;;5058700;28;20327;-81
2023/07/19 10:45:35;;;;;;;2.97;1.80;;;26.80;29.20;;;;;;5040880;28;20251;-81
2023/07/19 10:48:01;;;;;;;3.80;1.83;;;26.90;33.40;;;;;;5056688;28;20181;-80
2023/07/19 10:50:27;;;;;;;2.20;1.70;;;26.80;32.50;;;;;;5056563;28;20269;-82
2023/07/19 10:52:52;;;;;;;3.38;1.90;;;26.70;31.70;;;;;;5041633;28;20201;-81
2023/07/19 10:55:18;;;;;;;2.13;1.80;;;26.60;36.10;;;;;;5039394;28;20174;-82
2023/07/19 10:57:43;;;;;;;1.90;1.70;;;26.40;38.30;;;;;;5056898;28;20204;-81
2023/07/19 11:00:12;;;;;;;2.53;1.77;;;26.40;38.60;;;;;;5038618;28;20517;-81
2023/07/19 11:02:42;;;;;;;3.15;1.70;;;26.30;42.80;;;;;;5039160;28;20212;-82
2023/07/19 11:05:09;;;;;;;3.53;1.92;;;26.30;43.30;;;;;;5038934;28;20649;-83
2023/07/19 11:07:35;;;;;;;2.15;1.85;;;26.40;47.50;;;;;;5038264;28;20173;-82
2023/07/19 11:10:02;;;;;;;3.00;1.90;;;27.00;47.90;;;;;;5038676;28;20181;-82
2023/07/19 11:12:29;;;;;;;2.15;1.60;;;27.40;40.10;;;;;;5056513;28;20634;-80
2023/07/19 11:14:58;;;;;;;2.20;1.75;;;27.40;32.90;;;;;;5056502;28;20231;-80
2023/07/19 11:17:25;;;;;;;2.33;1.77;;;27.20;35.20;;;;;;5039145;28;20173;-80
2023/07/19 11:19:51;;;;;;;3.58;2.05;;;27.00;34.50;;;;;;5055460;28;20170;-81
2023/07/19 11:22:24;;;;;;;4.22;2.00;;;26.80;39.20;;;;;;5055857;28;20212;-79
2023/07/19 11:24:51;;;;;;;4.80;1.90;;;26.70;45.70;;;;;;5037365;28;20162;-79
2023/07/19 11:27:17;;;;;;;3.15;1.73;;;26.80;42.50;;;;;;5055289;28;20173;-79
2023/07/19 11:29:48;;;;;;;2.58;1.70;;;26.80;38.60;;;;;;5053643;28;20174;-79
2023/07/19 11:32:20;;;;;;;1.90;1.48;;;26.90;38.50;;;;;;5055284;28;20162;-79
2023/07/19 11:34:57;;;;;;;2.40;1.95;;;26.90;40.30;;;;;;5055058;28;20150;-79
2023/07/19 11:37:33;;;;;;;2.65;1.70;;;26.90;40.30;;;;;;5055057;28;20162;-79
2023/07/19 11:40:09;;;;;;;3.55;1.80;;;27.00;41.50;;;;;;5035527;28;20323;-79
2023/07/19 11:42:52;;;;;;;3.10;1.63;;;27.10;37.40;;;;;;5055009;28;20223;-79
2023/07/19 11:45:24;;;;;;;2.08;1.70;;;26.90;37.50;;;;;;5054524;28;20276;-78
2023/07/19 11:47:52;;;;;;;3.95;1.80;;;26.70;41.40;;;;;;5037528;28;20178;-77
2023/07/19 11:50:17;;;;;;;2.80;1.77;;;26.60;42.70;;;;;;5053092;28;20659;-79
2023/07/19 11:52:48;;;;;;;2.50;1.75;;;26.60;47.60;;;;;;5055012;28;20201;-78
2023/07/19 11:55:15;;;;;;;2.53;1.92;;;26.80;47.30;;;;;;5054682;28;20193;-78
2023/07/19 11:57:42;;;;;;;2.78;1.92;;;26.90;43.00;;;;;;5054871;28;20566;-78
2023/07/19 12:00:10;;;;;;;2.35;1.90;;;26.90;42.50;;;;;;5054542;28;20181;-78
2023/07/19 12:02:36;;;;;;;2.65;1.80;;;26.80;38.20;;;;;;5036258;28;20205;-79
2023/07/19 12:05:04;;;;;;;3.97;2.00;;;26.80;39.80;;;;;;5054420;28;20172;-79
2023/07/19 12:07:30;;;;;;;3.95;1.90;;;26.70;44.80;;;;;;5037048;28;20177;-78
2023/07/19 12:09:56;;;;;;;3.42;1.77;;;26.70;44.20;;;;;;5054153;28;20258;-80
2023/07/19 12:12:22;;;;;;;1.70;1.60;;;26.60;44.50;;;;;;5037122;28;20239;-78
2023/07/19 12:14:48;;;;;;;3.25;1.98;;;26.60;47.70;;;;;;5036732;28;20173;-78
2023/07/19 12:17:13;;;;;;;3.38;2.00;;;26.50;48.40;;;;;;5036780;28;20196;-79
2023/07/19 12:19:39;;;;;;;2.85;1.88;;;26.40;52.00;;;;;;5035546;28;20201;-79
2023/07/19 12:22:04;;;;;;;5.25;2.38;;;26.30;56.00;;;;;;5053966;28;20173;-78
2023/07/19 12:24:30;;;;;;;3.10;2.40;;;26.20;60.00;;;;;;5053900;28;20218;-79
2023/07/19 12:26:56;;;;;;;2.13;1.73;;;26.00;61.00;;;;;;5053371;28;20238;-79
2023/07/19 12:29:21;;;;;;;2.78;1.90;;;26.00;64.80;;;;;;5035704;28;20177;-79
2023/07/19 12:31:47;;;;;;;3.17;1.95;;;26.00;64.70;;;;;;5053142;28;20189;-79
2023/07/19 12:34:13;;;;;;;3.90;1.92;;;26.00;66.40;;;;;;5053287;28;20660;-80
2023/07/19 12:36:38;;;;;;;2.70;2.15;;;26.10;72.80;;;;;;5053560;28;20172;-79
2023/07/19 12:39:04;;;;;;;3.35;2.03;;;26.20;77.90;;;;;;5053565;28;20205;-79
2023/07/19 12:41:30;;;;;;;4.53;1.90;;;26.20;80.50;;;;;;5033962;28;20173;-78
2023/07/19 12:43:56;;;;;;;2.67;2.00;;;26.20;82.20;;;;;;5038411;28;20248;-79
2023/07/19 12:46:21;;;;;;;3.33;2.13;;;26.10;85.50;;;;;;5016110;28;20170;-79
2023/07/19 12:48:48;;;;;;;5.97;2.33;;;26.20;82.80;;;;;;5033547;28;20171;-79